Derby Airport

Airport
ICAO code: 
YDBY
IATA Code: 
DRB
Summary
ICAO Region: 
APAC
Territory: 
Location: 
Derby, Western Australia
Serving: 
Derby
Elevation: 
24 ft
Coordinates: 
Aerial View: 
17° 22' 18.761" S, 123° 39' 41.58" E
Metar
Observation
YDBY 190100Z AUTO 20012KT 9999 // NCD 30/23 Q1007
Station
Derby Airport
Date/Time
2022-01-19 01:00:00
Wind direction
200°
Wind speed
12 kts
Lowest cloud amount
no clouds detected
Temperature
30°C
Dew point
23°C
Humidity
66%
QNH
1007 hPa
Weather condition
n/a

Airport located in Derby, Western Australia.

Runways

Designator Length Width Surface Rops
5/23 1158 18 GVL No/No
11/29 1736 30 ASP No/No
Airport map: 
Aerial View: 

SKYbrary Partners:

Safety knowledge contributed by: